الصفحة الرئيسية
METAR-TAF:

METAR-TAF

مطار :

غالوب, نيومكسيكو, الولايات المتحدة

دائرة عرض: 35-30-40N, خط طول: 108-47-22W, ارتفاع: 1973 متر

مراقبة الطقس الحالي

تاريخ ووقت الإصدار 45 دقيقة قبل الساعة 08:53UTC
رياح هادئة
درجة الحرارة 3°درجة مئوية
الرطوبة 30%
ضغط 1030 hPa
الرؤية: 16.1 كم
سماء صافية

METAR: KGUP 290853Z AUTO 00000KT 10SM CLR 03/M13 A3041 RMK AO2 SLP203 T00281133 50005

زمن: 03:38 (09:38 UTC)

توقعات

تاريخ ووقت الإصدار 4ساعات و 17 دقيقة قبل الساعة 05:21UTC
التوقعات صالحة من29 الساعة 06 UTC إلى 30 الساعة 06 UTC
ريح 3 عقدةمن اتجاهات متغيرة
الرؤية: 10 كم
غيوم قليلة على ارتفاع 25000 قدم
من 29 الساعة 1900 UTC
ريح 8 عقدة من الغرب/الشمال الغربي
الرؤية: 10 كم
سماء صافية
من 30 الساعة 0200 UTC
ريح 3 عقدةمن اتجاهات متغيرة
الرؤية: 10 كم
سماء صافية

TAF: KGUP 290521Z 2906/3006 VRB03KT P6SM FEW250 FM291900 29008KT P6SM SKC FM300200 VRB03KT P6SM SKC

أرصاد الطقس والتوقعات من أكثر من 4000 مطار (تقارير الطقس للمطار METAR والتنبؤ بالطقس بالمطارTAF).

المحطات المتاحة هي النقط الصفراء والحمراء على الخريطة.

حرك المؤشر فوق النقطة لمعرفة اسم المحطة.

ثم انقر لمعرفة أرصاد وتوقعات الطقس.

لتغيير الخارطة: اضغط على الأزرار الخضراء مع رمز الصليب الأسود للتكبير. على الزر الأخضر مع شرطة للتصغير، أو على الأسهم الخضراء للخرائط المجاورة.


METAR-TAF: